Time,TemperatureF,DewpointF,PressureIn,WindDirection,WindDirectionDegrees,WindSpeedMPH,WindSpeedGustMPH,Humidity,HourlyPrecipIn,Conditions,Clouds,dailyrainin,SoftwareType,DateUTC
2013-01-12 00:01:00,49.6,49.0,30.17,SE,129,0.0,0.0,98,0.00,,,0.44,weatherlink.com 1.10,2013-01-12 05:01:00,
2013-01-12 00:16:00,49.6,49.0,30.17,SE,129,0.0,0.0,98,0.00,,,0.44,weatherlink.com 1.10,2013-01-12 05:16:00,
2013-01-12 00:31:00,49.6,49.0,30.17,SE,129,0.0,0.0,98,0.00,,,0.44,weatherlink.com 1.10,2013-01-12 05:31:00,
2013-01-12 00:46:00,49.6,49.0,30.17,SE,129,0.0,0.0,99,0.00,,,0.44,weatherlink.com 1.10,2013-01-12 05:46:00,
2013-01-12 01:01:00,49.7,50.0,30.16,SE,129,0.0,0.0,99,0.01,,,0.01,weatherlink.com 1.10,2013-01-12 06:01:00,
2013-01-12 01:16:00,49.6,49.0,30.16,SE,129,0.0,0.0,99,0.01,,,0.01,weatherlink.com 1.10,2013-01-12 06:16:00,
2013-01-12 01:31:00,49.5,49.0,30.15,SE,129,0.0,0.0,98,0.01,,,0.01,weatherlink.com 1.10,2013-01-12 06:31:00,
2013-01-12 01:46:00,49.5,49.0,30.15,SE,129,0.0,0.0,99,0.01,,,0.01,weatherlink.com 1.10,2013-01-12 06:46:00,
2013-01-12 02:01:00,49.5,49.0,30.15,SE,129,0.0,0.0,99,0.00,,,0.01,weatherlink.com 1.10,2013-01-12 07:01:00,
2013-01-12 02:16:00,49.5,49.0,30.15,SE,129,0.0,1.0,98,0.00,,,0.01,weatherlink.com 1.10,2013-01-12 07:16:00,
2013-01-12 02:31:00,49.5,49.0,30.16,SE,129,0.0,1.0,99,0.00,,,0.01,weatherlink.com 1.10,2013-01-12 07:31:00,
2013-01-12 02:46:00,49.5,49.0,30.15,SE,129,0.0,0.0,99,0.00,,,0.01,weatherlink.com 1.10,2013-01-12 07:46:00,
2013-01-12 03:01:00,49.6,49.0,30.15,SE,129,0.0,0.0,98,0.00,,,0.01,weatherlink.com 1.10,2013-01-12 08:01:00,
2013-01-12 03:16:00,49.5,49.0,30.15,SE,129,0.0,1.0,99,0.00,,,0.01,weatherlink.com 1.10,2013-01-12 08:16:00,
2013-01-12 03:31:00,49.5,49.0,30.14,SE,129,0.0,0.0,98,0.00,,,0.01,weatherlink.com 1.10,2013-01-12 08:31:00,
2013-01-12 03:46:00,49.6,49.0,30.13,SE,129,0.0,1.0,99,0.00,,,0.01,weatherlink.com 1.10,2013-01-12 08:46:00,
2013-01-12 04:01:00,49.5,49.0,30.12,SE,129,0.0,1.0,99,0.00,,,0.01,weatherlink.com 1.10,2013-01-12 09:01:00,
2013-01-12 04:16:00,49.6,49.0,30.13,SE,129,0.0,2.0,99,0.00,,,0.01,weatherlink.com 1.10,2013-01-12 09:16:00,
2013-01-12 04:31:00,49.6,49.0,30.13,NE,49,0.0,1.0,99,0.00,,,0.01,weatherlink.com 1.10,2013-01-12 09:31:00,
2013-01-12 04:46:00,49.7,50.0,30.12,NE,49,0.0,0.0,99,0.00,,,0.01,weatherlink.com 1.10,2013-01-12 09:46:00,
2013-01-12 05:01:00,50.0,50.0,30.12,NE,49,0.0,1.0,99,0.00,,,0.01,weatherlink.com 1.10,2013-01-12 10:01:00,
2013-01-12 05:16:00,50.0,50.0,30.12,NE,49,2.0,2.0,99,0.00,,,0.01,weatherlink.com 1.10,2013-01-12 10:16:00,
2013-01-12 05:31:00,50.0,50.0,30.11,NE,49,1.0,2.0,99,0.00,,,0.01,weatherlink.com 1.10,2013-01-12 10:31:00,
2013-01-12 05:46:00,49.9,50.0,30.12,NE,53,0.0,3.0,99,0.00,,,0.01,weatherlink.com 1.10,2013-01-12 10:46:00,
2013-01-12 06:01:00,50.6,50.0,30.12,ENE,72,0.0,3.0,99,0.00,,,0.01,weatherlink.com 1.10,2013-01-12 11:01:00,
2013-01-12 06:16:00,51.0,51.0,30.13,ENE,75,1.0,4.0,99,0.00,,,0.01,weatherlink.com 1.10,2013-01-12 11:16:00,
2013-01-12 06:31:00,51.0,51.0,30.13,ENE,74,0.0,3.0,99,0.00,,,0.01,weatherlink.com 1.10,2013-01-12 11:31:00,
2013-01-12 06:46:00,51.2,51.0,30.13,NE,56,2.0,3.0,99,0.00,,,0.01,weatherlink.com 1.10,2013-01-12 11:46:00,
2013-01-12 07:01:00,51.3,51.0,30.13,NE,35,4.0,5.0,99,0.00,,,0.01,weatherlink.com 1.10,2013-01-12 12:01:00,
2013-01-12 07:16:00,51.6,51.0,30.14,ENE,69,0.0,1.0,99,0.00,,,0.01,weatherlink.com 1.10,2013-01-12 12:16:00,
2013-01-12 07:31:00,51.8,52.0,30.15,ENE,64,1.0,3.0,99,0.00,,,0.01,weatherlink.com 1.10,2013-01-12 12:31:00,
2013-01-12 07:46:00,51.9,52.0,30.14,NE,45,0.0,4.0,99,0.00,,,0.01,weatherlink.com 1.10,2013-01-12 12:46:00,
2013-01-12 08:01:00,52.0,52.0,30.14,SE,124,2.0,3.0,99,0.00,,,0.01,weatherlink.com 1.10,2013-01-12 13:01:00,
2013-01-12 08:16:00,52.4,52.0,30.15,ENE,67,0.0,2.0,99,0.00,,,0.01,weatherlink.com 1.10,2013-01-12 13:16:00,
2013-01-12 08:31:00,52.5,52.0,30.15,ENE,67,0.0,0.0,99,0.00,,,0.01,weatherlink.com 1.10,2013-01-12 13:31:00,
2013-01-12 08:46:00,52.8,53.0,30.16,ENE,67,0.0,0.0,99,0.00,,,0.01,weatherlink.com 1.10,2013-01-12 13:46:00,
2013-01-12 09:01:00,53.6,54.0,30.16,ENE,67,0.0,2.0,100,0.00,,,0.01,weatherlink.com 1.10,2013-01-12 14:01:00,
2013-01-12 09:17:00,54.2,54.0,30.16,ENE,70,1.0,3.0,100,0.00,,,0.01,weatherlink.com 1.10,2013-01-12 14:17:00,
2013-01-12 09:31:00,54.8,55.0,30.16,NE,38,1.0,3.0,100,0.00,,,0.01,weatherlink.com 1.10,2013-01-12 14:31:00,
2013-01-12 09:46:00,55.1,55.0,30.16,NE,38,1.0,2.0,99,0.00,,,0.01,weatherlink.com 1.10,2013-01-12 14:46:00,
2013-01-12 10:01:00,55.5,56.0,30.16,East,99,0.0,2.0,100,0.00,,,0.01,weatherlink.com 1.10,2013-01-12 15:01:00,
2013-01-12 10:16:00,55.9,56.0,30.17,East,99,0.0,2.0,100,0.00,,,0.01,weatherlink.com 1.10,2013-01-12 15:16:00,
2013-01-12 10:31:00,56.5,57.0,30.17,East,99,1.0,2.0,100,0.00,,,0.01,weatherlink.com 1.10,2013-01-12 15:31:00,
2013-01-12 10:46:00,56.9,57.0,30.16,ESE,113,0.0,4.0,100,0.00,,,0.01,weatherlink.com 1.10,2013-01-12 15:46:00,
2013-01-12 11:01:00,57.1,57.0,30.16,ESE,112,0.0,2.0,100,0.00,,,0.01,weatherlink.com 1.10,2013-01-12 16:01:00,
2013-01-12 11:16:00,57.6,58.0,30.15,ESE,112,0.0,1.0,100,0.00,,,0.01,weatherlink.com 1.10,2013-01-12 16:16:00,
2013-01-12 11:31:00,57.9,58.0,30.15,ESE,110,1.0,3.0,100,0.00,,,0.01,weatherlink.com 1.10,2013-01-12 16:31:00,
2013-01-12 11:47:00,58.2,58.0,30.14,ESE,110,0.0,2.0,100,0.00,,,0.01,weatherlink.com 1.10,2013-01-12 16:47:00,
2013-01-12 12:02:00,58.2,58.0,30.13,ESE,110,0.0,2.0,100,0.00,,,0.01,weatherlink.com 1.10,2013-01-12 17:02:00,
2013-01-12 12:17:00,58.7,59.0,30.13,ESE,110,0.0,1.0,100,0.00,,,0.01,weatherlink.com 1.10,2013-01-12 17:17:00,
2013-01-12 12:32:00,59.0,59.0,30.13,ESE,110,0.0,1.0,100,0.00,,,0.01,weatherlink.com 1.10,2013-01-12 17:32:00,
2013-01-12 12:47:00,59.2,59.0,30.12,ESE,110,0.0,2.0,100,0.00,,,0.01,weatherlink.com 1.10,2013-01-12 17:47:00,
2013-01-12 13:02:00,59.2,59.0,30.12,ESE,110,0.0,2.0,100,0.00,,,0.01,weatherlink.com 1.10,2013-01-12 18:02:00,
2013-01-12 13:17:00,59.6,60.0,30.12,ESE,108,0.0,2.0,100,0.00,,,0.01,weatherlink.com 1.10,2013-01-12 18:17:00,
2013-01-12 13:32:00,60.3,60.0,30.11,ESE,108,0.0,2.0,100,0.00,,,0.01,weatherlink.com 1.10,2013-01-12 18:32:00,
2013-01-12 13:47:00,60.4,60.0,30.12,ENE,62,0.0,3.0,100,0.00,,,0.01,weatherlink.com 1.10,2013-01-12 18:47:00,
2013-01-12 14:02:00,60.8,61.0,30.12,ENE,64,1.0,3.0,100,0.00,,,0.01,weatherlink.com 1.10,2013-01-12 19:02:00,
2013-01-12 14:17:00,61.4,61.0,30.11,East,85,1.0,2.0,100,0.00,,,0.01,weatherlink.com 1.10,2013-01-12 19:17:00,
2013-01-12 14:32:00,61.9,62.0,30.11,NNE,24,2.0,3.0,99,0.00,,,0.01,weatherlink.com 1.10,2013-01-12 19:32:00,
2013-01-12 14:47:00,62.6,62.0,30.11,NE,40,0.0,3.0,98,0.00,,,0.01,weatherlink.com 1.10,2013-01-12 19:47:00,
2013-01-12 15:02:00,63.9,63.0,30.11,NE,43,0.0,2.0,96,0.00,,,0.01,weatherlink.com 1.10,2013-01-12 20:02:00,
2013-01-12 15:17:00,64.3,62.0,30.10,East,85,0.0,2.0,93,0.00,,,0.01,weatherlink.com 1.10,2013-01-12 20:17:00,
2013-01-12 15:32:00,64.4,62.0,30.10,East,85,2.0,2.0,93,0.00,,,0.01,weatherlink.com 1.10,2013-01-12 20:32:00,
2013-01-12 15:47:00,64.7,63.0,30.10,East,85,0.0,2.0,93,0.00,,,0.01,weatherlink.com 1.10,2013-01-12 20:47:00,
2013-01-12 16:02:00,64.9,63.0,30.10,East,85,0.0,2.0,93,0.00,,,0.01,weatherlink.com 1.10,2013-01-12 21:02:00,
2013-01-12 16:17:00,65.0,63.0,30.10,East,85,0.0,2.0,93,0.00,,,0.01,weatherlink.com 1.10,2013-01-12 21:17:00,
2013-01-12 16:32:00,65.2,63.0,30.10,East,85,0.0,2.0,93,0.00,,,0.01,weatherlink.com 1.10,2013-01-12 21:32:00,
2013-01-12 16:47:00,66.0,63.0,30.10,East,85,0.0,2.0,91,0.00,,,0.01,weatherlink.com 1.10,2013-01-12 21:47:00,
2013-01-12 17:02:00,66.1,63.0,30.10,East,85,0.0,0.0,90,0.00,,,0.01,weatherlink.com 1.10,2013-01-12 22:02:00,
2013-01-12 17:17:00,65.7,63.0,30.09,East,85,0.0,0.0,91,0.00,,,0.01,weatherlink.com 1.10,2013-01-12 22:17:00,
2013-01-12 17:32:00,64.9,63.0,30.09,East,85,0.0,0.0,92,0.00,,,0.01,weatherlink.com 1.10,2013-01-12 22:32:00,
2013-01-12 17:47:00,64.4,62.0,30.09,East,85,0.0,0.0,93,0.00,,,0.01,weatherlink.com 1.10,2013-01-12 22:47:00,
2013-01-12 18:02:00,63.8,62.0,30.09,East,85,0.0,0.0,94,0.00,,,0.01,weatherlink.com 1.10,2013-01-12 23:02:00,
2013-01-12 18:17:00,63.1,62.0,30.09,East,85,0.0,1.0,95,0.00,,,0.01,weatherlink.com 1.10,2013-01-12 23:17:00,
2013-01-12 18:32:00,63.1,62.0,30.09,East,85,0.0,1.0,95,0.00,,,0.01,weatherlink.com 1.10,2013-01-12 23:32:00,
2013-01-12 18:47:00,63.1,62.0,30.09,East,85,1.0,1.0,95,0.00,,,0.01,weatherlink.com 1.10,2013-01-12 23:47:00,
2013-01-12 19:02:00,63.1,61.0,30.09,South,172,0.0,3.0,93,0.00,,,0.01,weatherlink.com 1.10,2013-01-13 00:02:00,
2013-01-12 19:17:00,63.1,61.0,30.09,South,172,0.0,3.0,91,0.00,,,0.01,weatherlink.com 1.10,2013-01-13 00:17:00,
2013-01-12 19:32:00,62.7,60.0,30.09,SSW,208,0.0,4.0,91,0.00,,,0.01,weatherlink.com 1.10,2013-01-13 00:32:00,
2013-01-12 19:47:00,62.8,60.0,30.10,SW,225,3.0,4.0,90,0.00,,,0.01,weatherlink.com 1.10,2013-01-13 00:47:00,
2013-01-12 20:02:00,63.1,60.0,30.09,WSW,254,2.0,5.0,89,0.00,,,0.01,weatherlink.com 1.10,2013-01-13 01:02:00,
2013-01-12 20:17:00,62.8,60.0,30.09,SSW,212,0.0,3.0,90,0.00,,,0.01,weatherlink.com 1.10,2013-01-13 01:17:00,
2013-01-12 20:32:00,62.9,60.0,30.09,WSW,245,0.0,2.0,90,0.00,,,0.01,weatherlink.com 1.10,2013-01-13 01:32:00,
2013-01-12 20:47:00,62.1,60.0,30.09,WSW,245,0.0,1.0,92,0.00,,,0.01,weatherlink.com 1.10,2013-01-13 01:47:00,
2013-01-12 21:02:00,61.5,60.0,30.09,SSE,151,0.0,2.0,93,0.00,,,0.01,weatherlink.com 1.10,2013-01-13 02:02:00,
2013-01-12 21:17:00,61.4,59.0,30.09,SSE,151,0.0,0.0,93,0.00,,,0.01,weatherlink.com 1.10,2013-01-13 02:17:00,
2013-01-12 21:32:00,61.1,59.0,30.09,SSE,151,0.0,0.0,93,0.00,,,0.01,weatherlink.com 1.10,2013-01-13 02:32:00,
2013-01-12 21:47:00,60.8,59.0,30.09,SSE,151,1.0,2.0,94,0.00,,,0.01,weatherlink.com 1.10,2013-01-13 02:47:00,
2013-01-12 22:02:00,60.1,58.0,30.08,SE,130,1.0,3.0,94,0.00,,,0.01,weatherlink.com 1.10,2013-01-13 03:02:00,
2013-01-12 22:17:00,59.6,58.0,30.08,SE,125,0.0,2.0,94,0.00,,,0.01,weatherlink.com 1.10,2013-01-13 03:17:00,
2013-01-12 22:32:00,58.4,57.0,30.08,SE,125,1.0,2.0,95,0.00,,,0.01,weatherlink.com 1.10,2013-01-13 03:32:00,
2013-01-12 22:47:00,57.5,57.0,30.08,SE,125,1.0,2.0,97,0.00,,,0.01,weatherlink.com 1.10,2013-01-13 03:47:00,
2013-01-12 23:02:00,57.5,56.0,30.08,SE,125,0.0,1.0,96,0.00,,,0.01,weatherlink.com 1.10,2013-01-13 04:02:00,
2013-01-12 23:17:00,57.4,57.0,30.08,SE,125,1.0,2.0,97,0.00,,,0.01,weatherlink.com 1.10,2013-01-13 04:17:00,
2013-01-12 23:32:00,57.2,56.0,30.08,SE,125,2.0,2.0,96,0.00,,,0.01,weatherlink.com 1.10,2013-01-13 04:32:00,
2013-01-12 23:47:00,57.3,57.0,30.08,SE,125,1.0,1.0,97,0.00,,,0.01,weatherlink.com 1.10,2013-01-13 04:47:00,